Newark, OH (43058)

1:26 AM EDT on August 24, 2016 (GMT -0400)
COCT/OSU Newark | | Change Station

Elev 863 ft 40.06 °N, 82.45 °W | Updated 36 seconds ago

Clear
Clear
60.8 °F
Feels Like 60.8 °F
N
0.0
Wind Variable Wind from ESE

Today
High -- | Low -- °F
--% Chance of Precip.
Yesterday
High -- | Low -- °F
Precip. -- in
Pressure 30.22 in
Visibility 8.0 miles
Clouds Clear
Dew Point 60 °F
Humidity 96%
Rainfall 0.00 in
Snow Depth Not available.
6:50 AM 8:12 PM
Waning Gibbous, 61% visible
METAR KVTA 240454Z AUTO 00000KT 8SM CLR 16/15 A3023 RMK AO2 SLP232 T01560150 402720106
Pressure 30.22 in
Visibility 8.0 miles
Clouds Clear
Dew Point 60 °F
Humidity 96%
Rainfall 0.00 in
Snow Depth Not available.
6:50 AM 8:12 PM
Waning Gibbous, 61% visible
METAR KVTA 240454Z AUTO 00000KT 8SM CLR 16/15 A3023 RMK AO2 SLP232 T01560150 402720106

10-Day Weather Forecast

Almanac

Astronomy

Aug. 24, 2016 Rise Set
Actual Time
Civil Twilight
Nautical Twilight
Astronomical Twilight
Moon
Length of Visible Light
Length of Day
Tomorrow will be .
, % of the Moon is Illuminated

Today's Extremes

State Highs State Lows

Community

WunderPhotos

Upload Photos

1,934,554 photos uploaded!

WunderBlog® & News

Nearby

Air Quality

  Air Quality AQ Index Pollutant
Not available.

Snow Depth

Station Depth Elevation

Earthquake Activity

City Distance Mag. Time & Date
Minimum magnitude displayed is 2.5.

Coastal Water Temperatures

Place Temperature

Stations

Nearby Weather Stations

Station Location Temp. Windchill Dew Point Humidity Wind Precip. Elev Updated Type
                   

Watches & Warnings

There are currently no watches in effect.